createdAt,value
2019-06-10T00:04:22.221Z,5.23
2019-06-10T00:14:31.599Z,4.67
2019-06-10T00:24:42.293Z,4.43
2019-06-10T00:34:55.464Z,3.70
2019-06-10T00:45:07.576Z,4.73
2019-06-10T00:55:14.961Z,4.67
2019-06-10T01:05:24.127Z,4.83
2019-06-10T01:15:35.600Z,5.10
2019-06-10T01:25:51.432Z,6.60
2019-06-10T01:35:57.534Z,7.57
2019-06-10T01:46:11.306Z,8.90
2019-06-10T01:56:21.709Z,8.77
2019-06-10T02:06:31.768Z,8.30
2019-06-10T02:16:41.440Z,6.13
2019-06-10T02:26:51.672Z,8.43
2019-06-10T02:36:57.096Z,7.50
2019-06-10T02:47:09.549Z,6.20
2019-06-10T02:57:29.575Z,6.77
2019-06-10T03:07:35.418Z,6.50
2019-06-10T03:17:45.679Z,6.27
2019-06-10T03:27:56.394Z,5.93
2019-06-10T03:38:16.168Z,6.77
2019-06-10T03:48:28.507Z,6.00
2019-06-10T03:58:44.708Z,7.60
2019-06-10T04:08:59.922Z,7.83
2019-06-10T04:19:06.854Z,7.90
2019-06-10T04:29:13.677Z,7.30
2019-06-10T04:39:33.634Z,6.90
2019-06-10T04:49:37.350Z,7.53
2019-06-10T04:59:42.852Z,7.77
2019-06-10T05:09:47.923Z,8.07
2019-06-10T05:20:02.321Z,7.13
2019-06-10T05:30:12.833Z,7.10
2019-06-10T05:40:26.527Z,4.67
2019-06-10T05:50:42.672Z,3.83
2019-06-10T06:00:53.968Z,3.63
2019-06-10T06:11:12.538Z,3.20
2019-06-10T06:21:30.070Z,3.63
2019-06-10T06:31:36.220Z,3.20
2019-06-10T06:41:42.692Z,2.47
2019-06-10T06:51:56.099Z,2.30
2019-06-10T07:02:02.811Z,2.23
2019-06-10T07:12:12.931Z,2.03
2019-06-10T07:22:23.352Z,1.90
2019-06-10T07:32:25.683Z,2.30
2019-06-10T07:42:34.217Z,1.77
2019-06-10T07:52:48.934Z,1.80
2019-06-10T08:02:58.752Z,1.83
2019-06-10T08:13:05.979Z,2.13
2019-06-10T08:23:24.557Z,1.50
2019-06-10T08:33:33.051Z,1.50
2019-06-10T08:43:34.582Z,1.80
2019-06-10T08:53:37.417Z,1.70
2019-06-10T09:03:43.572Z,1.50
2019-06-10T09:13:48.039Z,2.22
2019-06-10T09:23:59.576Z,1.85
2019-06-10T09:34:03.998Z,1.90
2019-06-10T09:44:12.922Z,1.65
2019-06-10T09:54:15.516Z,1.65
2019-06-10T10:04:17.863Z,1.50
2019-06-10T10:14:33.711Z,1.80
2019-06-10T10:24:44.313Z,2.10
2019-06-10T10:34:57.222Z,1.63
2019-06-10T10:45:16.539Z,1.97
2019-06-10T10:55:33.369Z,2.07
2019-06-10T11:05:40.663Z,1.90
2019-06-10T11:15:54.718Z,2.70
2019-06-10T11:26:06.019Z,3.30
2019-06-10T11:36:13.545Z,2.90
2019-06-10T11:46:21.796Z,2.03
2019-06-10T11:56:34.179Z,2.47
2019-06-10T12:06:45.301Z,2.60
2019-06-10T12:27:07.764Z,2.43
2019-06-10T12:37:18.269Z,2.90
2019-06-10T12:47:33.279Z,3.00
2019-06-10T12:57:47.777Z,3.93
2019-06-10T13:07:57.599Z,3.47
2019-06-10T13:18:18.940Z,3.60
2019-06-10T14:07:02.406Z,4.43
2019-06-10T14:26:06.177Z,4.73
2019-06-10T18:11:42.985Z,5.93
2019-06-10T18:37:17.669Z,3.90
